createdAt,value
2017-10-13T00:01:06.483Z,4.90
2017-10-13T00:03:33.970Z,4.90
2017-10-13T00:06:01.466Z,5.00
2017-10-13T00:08:28.979Z,5.90
2017-10-13T00:10:56.473Z,5.47
2017-10-13T00:13:24.755Z,5.97
2017-10-13T00:15:53.014Z,5.33
2017-10-13T00:18:20.506Z,5.10
2017-10-13T00:20:48.018Z,4.97
2017-10-13T00:23:15.512Z,4.37
2017-10-13T00:25:43.000Z,5.27
2017-10-13T00:28:10.516Z,4.87
2017-10-13T00:30:38.786Z,5.17
2017-10-13T00:33:06.291Z,5.30
2017-10-13T00:35:33.814Z,4.80
2017-10-13T00:38:01.307Z,5.97
2017-10-13T00:40:28.802Z,5.67
2017-10-13T00:42:56.310Z,4.27
2017-10-13T00:45:23.854Z,5.53
2017-10-13T00:47:51.358Z,4.70
2017-10-13T00:50:18.905Z,5.47
2017-10-13T00:52:46.402Z,5.10
2017-10-13T00:55:13.907Z,5.27
2017-10-13T00:57:41.437Z,6.33
2017-10-13T01:00:08.935Z,5.83
2017-10-13T01:02:36.422Z,5.90
2017-10-13T01:05:03.943Z,5.27
2017-10-13T01:07:31.430Z,5.63
2017-10-13T01:09:58.920Z,5.90
2017-10-13T01:12:26.429Z,5.73
2017-10-13T01:14:53.917Z,6.20
2017-10-13T01:17:21.410Z,5.60
2017-10-13T01:19:48.937Z,5.90
2017-10-13T01:22:16.453Z,6.50
2017-10-13T01:24:44.718Z,5.33
2017-10-13T01:27:13.016Z,7.47
2017-10-13T01:29:40.506Z,6.30
2017-10-13T01:32:08.003Z,6.73
2017-10-13T01:34:35.543Z,5.70
2017-10-13T01:37:03.043Z,5.83
2017-10-13T01:39:31.317Z,6.43
2017-10-13T01:41:59.575Z,5.63
2017-10-13T01:44:27.090Z,5.33
2017-10-13T01:46:54.609Z,5.90
2017-10-13T01:49:22.111Z,4.67
2017-10-13T01:51:49.607Z,4.70
2017-10-13T01:54:17.111Z,5.60
2017-10-13T01:56:44.619Z,4.97
2017-10-13T01:59:12.132Z,5.20
2017-10-13T02:01:39.622Z,5.77
2017-10-13T02:04:07.117Z,5.60
2017-10-13T02:06:35.390Z,5.10
2017-10-13T02:09:03.667Z,5.60
2017-10-13T02:11:31.946Z,5.20
2017-10-13T02:14:00.238Z,5.43
2017-10-13T02:16:28.499Z,5.10
2017-10-13T02:18:56.002Z,5.70
2017-10-13T02:21:23.514Z,4.50
2017-10-13T02:23:51.793Z,5.70
2017-10-13T02:26:20.059Z,6.13
2017-10-13T02:28:47.546Z,6.17
2017-10-13T02:31:15.129Z,5.40
2017-10-13T02:33:42.619Z,5.33
2017-10-13T02:36:10.120Z,5.10
2017-10-13T02:38:38.392Z,5.70
2017-10-13T02:41:07.247Z,5.70
2017-10-13T02:43:34.742Z,4.53
2017-10-13T02:46:03.031Z,5.33
2017-10-13T02:48:31.290Z,5.87
2017-10-13T02:51:00.308Z,5.27
2017-10-13T02:53:27.828Z,5.70
2017-10-13T02:55:55.315Z,5.87
2017-10-13T02:58:23.282Z,5.63
2017-10-13T03:00:50.794Z,5.80
2017-10-13T03:03:18.286Z,5.17
2017-10-13T03:05:46.967Z,5.50
2017-10-13T03:08:14.499Z,5.77
2017-10-13T03:10:41.996Z,5.00
2017-10-13T03:13:09.487Z,4.70
2017-10-13T03:15:37.005Z,5.10
2017-10-13T03:18:05.328Z,5.60
2017-10-13T03:20:33.646Z,5.33
2017-10-13T03:23:01.164Z,4.90
2017-10-13T03:25:28.659Z,5.03
2017-10-13T03:27:57.046Z,4.80
2017-10-13T03:30:24.556Z,4.57
2017-10-13T03:32:52.050Z,3.90
2017-10-13T03:35:19.675Z,4.27
2017-10-13T03:37:47.185Z,3.83
2017-10-13T03:40:14.674Z,5.07
2017-10-13T03:42:42.930Z,4.83
2017-10-13T03:45:10.467Z,4.80
2017-10-13T03:47:37.967Z,4.60
2017-10-13T03:50:05.471Z,4.60
2017-10-13T03:52:32.965Z,4.10
2017-10-13T03:55:01.255Z,5.00
2017-10-13T03:57:29.506Z,4.87
2017-10-13T03:59:56.995Z,4.53
2017-10-13T04:02:25.268Z,4.70
2017-10-13T04:04:53.839Z,5.37
2017-10-13T04:07:21.355Z,4.10
2017-10-13T04:09:48.860Z,4.57
2017-10-13T04:12:16.343Z,4.23
2017-10-13T04:14:43.850Z,4.40
2017-10-13T04:17:11.332Z,5.83
2017-10-13T04:19:38.822Z,4.87
2017-10-13T04:22:07.101Z,4.80
2017-10-13T04:24:34.591Z,5.03
2017-10-13T04:27:02.092Z,5.00
2017-10-13T04:29:29.629Z,4.33
2017-10-13T04:31:57.131Z,4.63
2017-10-13T04:34:25.397Z,5.00
2017-10-13T04:36:53.670Z,4.17
2017-10-13T04:39:21.918Z,4.50
2017-10-13T04:41:49.414Z,4.73
2017-10-13T04:44:17.687Z,5.10
2017-10-13T04:46:45.942Z,5.20
2017-10-13T04:49:13.435Z,5.13
2017-10-13T04:51:41.713Z,4.80
2017-10-13T04:54:09.983Z,5.00
2017-10-13T04:56:38.270Z,4.63
2017-10-13T04:59:05.758Z,4.40
2017-10-13T05:01:33.264Z,4.37
2017-10-13T05:04:00.774Z,5.20
2017-10-13T05:06:28.262Z,4.20
2017-10-13T05:08:55.758Z,5.50
2017-10-13T05:11:24.032Z,4.77
2017-10-13T05:13:52.315Z,5.33
2017-10-13T05:16:20.577Z,5.80
2017-10-13T05:18:48.855Z,6.80
2017-10-13T05:21:17.114Z,5.70
2017-10-13T05:23:45.391Z,5.60
2017-10-13T05:26:12.903Z,5.80
2017-10-13T05:28:40.405Z,6.40
2017-10-13T05:31:08.674Z,7.20
2017-10-13T05:33:36.178Z,6.70
2017-10-13T05:36:03.658Z,6.10
2017-10-13T05:38:31.145Z,6.10
2017-10-13T05:40:58.648Z,6.50
2017-10-13T05:43:26.894Z,7.17
2017-10-13T05:45:54.370Z,6.60
2017-10-13T05:48:21.875Z,6.97
2017-10-13T05:50:49.374Z,7.27
2017-10-13T05:53:16.891Z,6.40
2017-10-13T05:55:44.418Z,7.50
2017-10-13T05:58:12.703Z,7.03
2017-10-13T06:00:40.198Z,6.67
2017-10-13T06:03:07.698Z,6.73
2017-10-13T06:05:35.191Z,6.03
2017-10-13T06:08:02.675Z,6.50
2017-10-13T06:10:30.194Z,5.63
2017-10-13T06:12:58.455Z,7.03
2017-10-13T06:15:26.721Z,5.93
2017-10-13T06:17:54.227Z,6.20
2017-10-13T06:20:21.754Z,6.77
2017-10-13T06:22:49.249Z,7.33
2017-10-13T06:25:16.766Z,7.37
2017-10-13T06:27:44.264Z,6.80
2017-10-13T06:30:11.770Z,7.00
2017-10-13T06:32:39.274Z,5.93
2017-10-13T06:35:06.761Z,6.03
2017-10-13T06:37:34.259Z,6.30
2017-10-13T06:40:01.766Z,6.53
2017-10-13T06:42:30.050Z,6.40
2017-10-13T06:44:57.581Z,6.63
2017-10-13T06:47:25.106Z,7.07
2017-10-13T06:49:52.692Z,6.63
2017-10-13T06:52:20.233Z,6.53
2017-10-13T06:54:47.738Z,6.07
2017-10-13T06:57:15.237Z,6.10
2017-10-13T06:59:42.757Z,5.93
2017-10-13T07:02:10.282Z,6.10
2017-10-13T07:04:37.770Z,5.80
2017-10-13T07:07:05.270Z,5.30
2017-10-13T07:09:32.796Z,5.60
2017-10-13T07:12:00.294Z,6.53
2017-10-13T07:14:27.786Z,6.87
2017-10-13T07:16:55.307Z,6.00
2017-10-13T07:19:22.829Z,6.70
2017-10-13T07:21:50.329Z,6.87
2017-10-13T07:24:17.838Z,6.93
2017-10-13T07:26:45.350Z,6.50
2017-10-13T07:29:12.838Z,6.43
2017-10-13T07:31:41.094Z,5.90
2017-10-13T07:34:08.603Z,8.30
2017-10-13T07:36:36.103Z,6.17
2017-10-13T07:39:03.602Z,8.07
2017-10-13T07:41:31.126Z,6.50
2017-10-13T07:43:58.618Z,6.40
2017-10-13T07:46:26.879Z,6.33
2017-10-13T07:48:55.162Z,9.77
2017-10-13T07:51:23.428Z,7.10
2017-10-13T07:53:51.691Z,7.20
2017-10-13T07:56:19.199Z,6.10
2017-10-13T07:58:46.702Z,6.90
2017-10-13T08:01:14.216Z,6.13
2017-10-13T08:03:41.734Z,7.00
2017-10-13T08:06:09.230Z,6.90
2017-10-13T08:08:37.482Z,6.10
2017-10-13T08:11:05.773Z,6.90
2017-10-13T08:13:34.045Z,6.80
2017-10-13T08:16:02.310Z,5.93
2017-10-13T08:18:30.574Z,7.40
2017-10-13T08:20:58.094Z,5.60
2017-10-13T08:23:25.589Z,6.37
2017-10-13T08:25:53.105Z,6.27
2017-10-13T08:28:20.602Z,6.13
2017-10-13T08:30:48.100Z,5.60
2017-10-13T08:33:16.382Z,5.33
2017-10-13T08:35:43.906Z,8.03
2017-10-13T08:38:11.393Z,7.30
2017-10-13T08:40:38.910Z,7.20
2017-10-13T08:43:06.406Z,6.60
2017-10-13T08:45:34.667Z,6.37
2017-10-13T08:48:02.198Z,6.37
2017-10-13T08:50:29.690Z,6.17
2017-10-13T08:52:57.186Z,5.50
2017-10-13T08:55:24.711Z,6.80
2017-10-13T08:57:52.972Z,6.20
2017-10-13T09:00:20.487Z,5.43
2017-10-13T09:02:47.975Z,5.40
2017-10-13T09:05:15.471Z,5.53
2017-10-13T09:07:42.988Z,5.40
2017-10-13T09:10:10.504Z,5.93
2017-10-13T09:12:38.028Z,6.07
2017-10-13T09:15:05.527Z,6.13
2017-10-13T09:17:33.030Z,5.80
2017-10-13T09:20:00.546Z,6.13
2017-10-13T09:22:33.748Z,6.00
2017-10-13T09:25:01.259Z,6.10
2017-10-13T09:27:28.752Z,6.23
2017-10-13T09:29:56.254Z,6.63
2017-10-13T09:32:23.773Z,7.03
2017-10-13T09:34:51.273Z,7.30
2017-10-13T09:37:18.773Z,5.70
2017-10-13T09:39:46.301Z,6.50
2017-10-13T09:42:13.794Z,7.47
2017-10-13T09:44:42.053Z,6.10
2017-10-13T09:47:10.342Z,5.00
2017-10-13T09:49:38.626Z,6.50
2017-10-13T09:52:06.877Z,6.70
2017-10-13T09:54:34.370Z,5.37
2017-10-13T09:57:01.877Z,5.33
2017-10-13T09:59:29.375Z,6.20
2017-10-13T10:01:56.870Z,5.97
2017-10-13T10:04:24.397Z,6.57
2017-10-13T10:06:52.646Z,7.80
2017-10-13T10:09:20.170Z,5.80
2017-10-13T10:11:47.682Z,5.47
2017-10-13T10:14:15.183Z,4.80
2017-10-13T10:16:42.703Z,5.40
2017-10-13T10:19:10.955Z,5.33
2017-10-13T10:21:38.483Z,5.67
2017-10-13T10:24:06.007Z,5.10
2017-10-13T10:26:33.511Z,4.93
2017-10-13T10:29:01.040Z,6.17
2017-10-13T10:31:29.306Z,4.07
2017-10-13T10:33:57.567Z,4.50
2017-10-13T10:36:25.847Z,4.63
2017-10-13T10:38:54.159Z,4.20
2017-10-13T10:41:21.666Z,4.80
2017-10-13T10:43:49.938Z,5.17
2017-10-13T10:46:17.433Z,4.97
2017-10-13T10:48:44.947Z,4.90
2017-10-13T10:51:12.439Z,4.13
2017-10-13T10:53:40.705Z,4.47
2017-10-13T10:56:08.211Z,4.27
2017-10-13T10:58:35.711Z,4.50
2017-10-13T11:01:03.246Z,6.30
2017-10-13T11:03:30.750Z,4.90
2017-10-13T11:05:59.010Z,4.03
2017-10-13T11:08:26.519Z,4.30
2017-10-13T11:10:54.022Z,4.10
2017-10-13T11:13:21.533Z,4.40
2017-10-13T11:15:49.042Z,4.30
2017-10-13T11:18:16.530Z,3.83
2017-10-13T11:20:44.805Z,4.37
2017-10-13T11:23:13.057Z,4.43
2017-10-13T11:25:40.555Z,3.87
2017-10-13T11:28:08.831Z,4.87
2017-10-13T11:30:36.335Z,4.27
2017-10-13T11:33:03.847Z,4.17
2017-10-13T11:35:31.362Z,3.03
2017-10-13T11:37:58.849Z,3.70
2017-10-13T11:40:27.109Z,3.40
2017-10-13T11:42:54.625Z,4.50
2017-10-13T11:45:22.133Z,4.10
2017-10-13T11:47:49.640Z,3.70
2017-10-13T11:50:17.133Z,3.20
2017-10-13T11:52:44.626Z,2.90
2017-10-13T11:55:12.905Z,3.50
2017-10-13T11:57:41.159Z,2.33
2017-10-13T12:00:08.647Z,3.40
2017-10-13T12:02:36.920Z,3.57
2017-10-13T12:05:05.162Z,3.00
2017-10-13T12:07:32.679Z,2.50
2017-10-13T12:10:00.174Z,2.77
2017-10-13T12:12:27.663Z,2.77
2017-10-13T12:14:55.174Z,3.13
2017-10-13T12:17:22.679Z,2.80
2017-10-13T12:19:50.986Z,2.83
2017-10-13T12:22:18.488Z,2.47
2017-10-13T12:24:46.193Z,3.13
2017-10-13T12:27:13.714Z,2.20
2017-10-13T12:29:41.218Z,2.53
2017-10-13T12:32:08.731Z,2.60
2017-10-13T12:34:37.028Z,3.00
2017-10-13T12:37:04.542Z,2.30
2017-10-13T12:39:32.057Z,2.50
2017-10-13T12:42:00.358Z,2.37
2017-10-13T12:44:27.869Z,2.37
2017-10-13T12:46:55.368Z,2.53
2017-10-13T12:49:22.897Z,2.80
2017-10-13T12:51:50.419Z,2.23
2017-10-13T12:54:17.911Z,2.87
2017-10-13T12:56:45.403Z,3.23
2017-10-13T12:59:12.912Z,2.87
2017-10-13T13:01:40.418Z,2.67
2017-10-13T13:04:08.697Z,3.40
2017-10-13T13:06:36.954Z,3.67
2017-10-13T13:09:04.438Z,3.70
2017-10-13T13:11:31.955Z,3.07
2017-10-13T13:13:59.456Z,2.93
2017-10-13T13:16:26.942Z,3.10
2017-10-13T13:18:54.458Z,3.77
2017-10-13T13:21:22.706Z,2.73
2017-10-13T13:23:50.210Z,2.63
2017-10-13T13:26:17.722Z,2.87
2017-10-13T13:28:45.227Z,3.13
2017-10-13T13:31:12.753Z,3.10
2017-10-13T13:33:40.348Z,3.33
2017-10-13T13:36:07.852Z,3.30
2017-10-13T13:38:35.382Z,2.60
2017-10-13T13:41:02.878Z,3.30
2017-10-13T13:43:30.382Z,2.97
2017-10-13T13:45:57.895Z,2.90
2017-10-13T13:48:25.399Z,3.93
2017-10-13T13:50:53.660Z,3.67
2017-10-13T13:53:21.949Z,3.00
2017-10-13T13:55:50.204Z,3.50
2017-10-13T13:58:17.745Z,3.40
2017-10-13T14:00:45.283Z,3.60
2017-10-13T14:03:12.784Z,3.40
2017-10-13T14:05:40.301Z,2.90
2017-10-13T14:08:07.804Z,2.87
2017-10-13T14:10:35.303Z,3.13
2017-10-13T14:13:02.831Z,2.50
2017-10-13T14:15:31.094Z,2.73
2017-10-13T14:17:58.603Z,3.10
2017-10-13T14:20:26.092Z,3.27
2017-10-13T14:22:53.594Z,3.57
2017-10-13T14:25:21.106Z,3.20
2017-10-13T14:27:48.598Z,3.60
2017-10-13T14:30:16.090Z,2.77
2017-10-13T14:32:43.614Z,2.77
2017-10-13T14:35:11.103Z,2.93
2017-10-13T14:37:38.672Z,2.63
2017-10-13T14:40:06.171Z,2.53
2017-10-13T14:42:33.662Z,2.40
2017-10-13T14:45:01.200Z,2.43
2017-10-13T14:47:28.685Z,2.30
2017-10-13T14:49:56.971Z,2.50
2017-10-13T14:52:24.511Z,2.53
2017-10-13T14:54:52.055Z,2.17
2017-10-13T14:57:19.542Z,2.60
2017-10-13T14:59:47.819Z,2.40
2017-10-13T15:02:16.065Z,2.57
2017-10-13T15:04:43.602Z,2.40
2017-10-13T15:07:11.110Z,2.40
2017-10-13T15:09:38.597Z,1.90
2017-10-13T15:12:06.127Z,2.10
2017-10-13T15:14:34.377Z,2.30
2017-10-13T15:17:01.875Z,2.10
2017-10-13T15:19:30.155Z,2.73
2017-10-13T15:21:57.653Z,2.20
2017-10-13T15:24:25.161Z,1.83
2017-10-13T15:26:52.698Z,2.47
2017-10-13T15:29:25.882Z,2.67
2017-10-13T15:31:58.965Z,2.93
2017-10-13T15:34:32.471Z,2.20
2017-10-13T15:36:59.978Z,2.60
2017-10-13T15:53:01.002Z,2.40
2017-10-13T15:55:29.290Z,2.83
2017-10-13T15:57:56.828Z,3.00
2017-10-13T16:00:25.174Z,3.00
2017-10-13T16:02:52.836Z,2.57
2017-10-13T16:05:21.175Z,2.50
2017-10-13T16:07:48.795Z,2.40
2017-10-13T16:10:16.308Z,2.10
2017-10-13T16:12:43.852Z,2.80
2017-10-13T16:15:12.181Z,2.33
2017-10-13T16:17:39.723Z,2.33
2017-10-13T16:20:07.252Z,2.50
2017-10-13T16:22:34.772Z,2.20
2017-10-13T16:25:03.047Z,2.67
2017-10-13T16:27:31.360Z,2.40
2017-10-13T16:29:58.907Z,2.43
2017-10-13T16:32:27.255Z,2.03
2017-10-13T16:34:55.614Z,2.03
2017-10-13T16:37:23.284Z,2.77
2017-10-13T16:39:50.862Z,2.90
2017-10-13T16:42:18.354Z,3.00
2017-10-13T16:44:46.683Z,2.40
2017-10-13T16:47:14.237Z,2.67
2017-10-13T16:49:41.743Z,2.87
2017-10-13T16:52:09.275Z,2.63
2017-10-13T16:54:36.783Z,2.70
2017-10-13T16:57:04.351Z,2.97
2017-10-13T16:59:31.882Z,3.20
2017-10-13T17:01:59.577Z,3.30
2017-10-13T17:04:27.122Z,3.90
2017-10-13T17:06:54.638Z,4.00
2017-10-13T17:09:22.143Z,4.43
2017-10-13T17:11:50.026Z,3.80
2017-10-13T17:14:17.566Z,3.83
2017-10-13T17:16:45.058Z,4.10
2017-10-13T17:19:12.648Z,3.70
2017-10-13T17:21:40.997Z,3.33
2017-10-13T17:24:09.316Z,4.70
2017-10-13T17:26:36.851Z,3.67
2017-10-13T17:29:04.365Z,8.30
2017-10-13T17:31:31.893Z,7.63
2017-10-13T17:33:59.465Z,7.80
2017-10-13T17:36:26.998Z,4.67
2017-10-13T17:38:54.511Z,6.10
2017-10-13T17:41:22.031Z,5.07
2017-10-13T17:43:49.532Z,4.93
2017-10-13T17:46:17.055Z,4.70
2017-10-13T17:48:44.574Z,4.00
2017-10-13T17:51:12.053Z,3.40
2017-10-13T17:53:39.806Z,5.27
2017-10-13T17:56:07.368Z,4.73
2017-10-13T17:58:34.918Z,4.40
2017-10-13T18:01:02.449Z,4.13
2017-10-13T18:03:29.952Z,3.90
2017-10-13T18:05:57.446Z,4.07
2017-10-13T18:08:24.970Z,4.10
2017-10-13T18:10:52.490Z,4.00
2017-10-13T18:13:20.057Z,3.70
2017-10-13T18:15:47.578Z,3.40
2017-10-13T18:18:15.856Z,3.73
2017-10-13T18:20:44.143Z,3.40
2017-10-13T18:23:12.416Z,3.70
2017-10-13T18:25:39.934Z,3.77
2017-10-13T18:28:07.443Z,3.93
2017-10-13T18:30:34.944Z,3.90
2017-10-13T18:33:02.490Z,3.70
2017-10-13T18:35:30.011Z,3.80
2017-10-13T18:37:58.918Z,4.50
2017-10-13T18:40:26.414Z,4.10
2017-10-13T18:42:53.918Z,4.87
2017-10-13T18:45:22.277Z,4.63
2017-10-13T18:47:49.878Z,5.13
2017-10-13T18:50:17.389Z,6.93
2017-10-13T18:52:44.905Z,8.80
2017-10-13T18:55:12.407Z,7.50
2017-10-13T18:57:40.941Z,7.30
2017-10-13T19:00:08.900Z,6.20
2017-10-13T19:02:37.510Z,5.00
2017-10-13T19:05:05.048Z,5.10
2017-10-13T19:07:32.553Z,5.83
2017-10-13T19:10:00.084Z,6.40
2017-10-13T19:12:27.873Z,6.40
2017-10-13T19:14:56.174Z,7.03
2017-10-13T19:17:24.480Z,6.40
2017-10-13T19:19:52.793Z,7.60
2017-10-13T19:22:20.384Z,7.50
2017-10-13T19:24:48.007Z,6.80
2017-10-13T19:27:15.888Z,6.77
2017-10-13T19:29:43.524Z,7.10
2017-10-13T19:32:11.100Z,6.87
2017-10-13T19:34:39.290Z,7.07
2017-10-13T19:37:06.805Z,6.43
2017-10-13T19:39:35.085Z,8.23
2017-10-13T19:42:03.375Z,6.60
2017-10-13T19:44:31.667Z,7.67
2017-10-13T19:46:59.190Z,6.10
2017-10-13T19:49:26.802Z,6.80
2017-10-13T19:51:54.335Z,7.63
2017-10-13T19:54:22.015Z,6.53
2017-10-13T19:56:50.084Z,6.40
2017-10-13T19:59:17.576Z,6.47
2017-10-13T20:01:45.104Z,6.73
2017-10-13T20:04:12.604Z,7.20
2017-10-13T20:06:40.142Z,5.97
2017-10-13T20:09:07.671Z,6.83
2017-10-13T20:11:35.355Z,6.50
2017-10-13T20:14:02.975Z,7.53
2017-10-13T20:16:31.293Z,6.83
2017-10-13T20:18:58.825Z,7.23
2017-10-13T20:21:26.391Z,6.53
2017-10-13T20:23:53.923Z,6.77
2017-10-13T20:26:21.438Z,6.80
2017-10-13T20:28:49.011Z,5.50
2017-10-13T20:31:17.311Z,6.60
2017-10-13T20:33:44.846Z,6.37
2017-10-13T20:36:12.375Z,6.10
2017-10-13T20:38:39.871Z,6.20
2017-10-13T20:41:07.396Z,6.77
2017-10-13T20:43:34.893Z,6.33
2017-10-13T20:46:02.497Z,6.90
2017-10-13T20:48:30.025Z,7.83
2017-10-13T20:50:57.744Z,6.33
2017-10-13T20:53:25.250Z,7.03
2017-10-13T20:55:52.834Z,6.37
2017-10-13T20:58:20.334Z,5.90
2017-10-13T21:00:47.834Z,5.77
2017-10-13T21:03:15.405Z,5.93
2017-10-13T21:05:42.901Z,6.40
2017-10-13T21:08:10.404Z,6.63
2017-10-13T21:10:39.024Z,6.33
2017-10-13T21:13:07.112Z,6.30
2017-10-13T21:15:34.614Z,5.67
2017-10-13T21:18:02.121Z,6.50
2017-10-13T21:20:29.616Z,6.20
2017-10-13T21:22:57.101Z,6.20
2017-10-13T21:25:24.615Z,5.70
2017-10-13T21:27:52.101Z,6.83
2017-10-13T21:30:19.594Z,5.57
2017-10-13T21:32:47.106Z,6.20
2017-10-13T21:35:14.590Z,7.30
2017-10-13T21:37:42.075Z,6.63
2017-10-13T21:40:09.583Z,6.83
2017-10-13T21:42:37.075Z,7.10
2017-10-13T21:45:04.571Z,6.20
2017-10-13T21:47:32.087Z,6.30
2017-10-13T21:49:59.704Z,6.80
2017-10-13T21:52:27.194Z,6.33
2017-10-13T21:54:54.728Z,7.90
2017-10-13T21:57:22.234Z,5.93
2017-10-13T21:59:49.730Z,6.60
2017-10-13T22:02:17.267Z,7.13
2017-10-13T22:04:45.539Z,5.27
2017-10-13T22:07:13.793Z,6.43
2017-10-13T22:09:41.314Z,5.30
2017-10-13T22:12:08.810Z,6.40
2017-10-13T22:14:36.302Z,5.43
2017-10-13T22:17:03.831Z,6.60
2017-10-13T22:19:31.350Z,7.27
2017-10-13T22:21:58.854Z,6.23
2017-10-13T22:24:27.119Z,6.90
2017-10-13T22:26:55.406Z,6.30
2017-10-13T22:29:22.915Z,5.67
2017-10-13T22:31:50.503Z,7.10
2017-10-13T22:34:18.006Z,6.20
2017-10-13T22:36:45.501Z,5.80
2017-10-13T22:39:17.172Z,6.50
2017-10-13T22:41:44.670Z,5.70
2017-10-13T22:44:13.079Z,5.73
2017-10-13T22:46:40.598Z,6.07
2017-10-13T22:49:08.102Z,6.13
2017-10-13T22:51:35.650Z,5.67
2017-10-13T22:54:03.934Z,5.80
2017-10-13T22:56:31.443Z,5.97
2017-10-13T22:58:58.943Z,5.40
2017-10-13T23:01:26.454Z,5.67
2017-10-13T23:03:53.951Z,5.10
2017-10-13T23:06:22.230Z,5.00
2017-10-13T23:08:50.487Z,4.63
2017-10-13T23:11:18.002Z,5.17
2017-10-13T23:13:45.506Z,5.33
2017-10-13T23:16:13.002Z,5.80
2017-10-13T23:18:41.023Z,5.90
2017-10-13T23:21:08.522Z,5.63
2017-10-13T23:23:36.011Z,5.40
2017-10-13T23:26:03.526Z,4.97
2017-10-13T23:28:31.971Z,4.93
2017-10-13T23:30:59.490Z,5.10
2017-10-13T23:33:27.007Z,5.43
2017-10-13T23:35:55.286Z,5.10
2017-10-13T23:38:22.806Z,4.80
2017-10-13T23:40:50.393Z,5.87
2017-10-13T23:43:17.904Z,5.53
2017-10-13T23:45:45.399Z,5.50
2017-10-13T23:48:12.942Z,5.50
2017-10-13T23:50:40.433Z,6.00
2017-10-13T23:53:07.935Z,5.10
2017-10-13T23:55:35.453Z,5.67
2017-10-13T23:58:02.954Z,6.03
